createdAt,value
2018-08-12T00:01:52.082Z,21.90
2018-08-12T00:04:23.930Z,21.90
2018-08-12T00:06:55.287Z,22.00
2018-08-12T00:09:26.727Z,22.00
2018-08-12T00:11:57.867Z,22.00
2018-08-12T00:14:29.213Z,22.00
2018-08-12T00:17:00.468Z,22.00
2018-08-12T00:19:31.689Z,21.90
2018-08-12T00:22:03.269Z,21.70
2018-08-12T00:24:34.531Z,21.70
2018-08-12T00:27:05.900Z,21.90
2018-08-12T00:29:37.291Z,22.00
2018-08-12T00:32:08.501Z,21.90
2018-08-12T00:34:40.535Z,21.90
2018-08-12T00:37:12.096Z,21.80
2018-08-12T00:39:43.301Z,21.80
2018-08-12T00:42:14.774Z,21.60
2018-08-12T00:44:46.354Z,21.40
2018-08-12T00:47:17.617Z,21.60
2018-08-12T00:49:49.040Z,21.60
2018-08-12T00:52:20.952Z,21.60
2018-08-12T00:54:52.543Z,21.50
2018-08-12T00:57:24.409Z,21.60
2018-08-12T00:59:56.000Z,21.60
2018-08-12T01:02:28.423Z,21.40
2018-08-12T01:04:59.746Z,21.20
2018-08-12T01:07:31.134Z,21.30
2018-08-12T01:10:02.476Z,21.30
2018-08-12T01:12:33.868Z,21.20
2018-08-12T01:15:06.582Z,21.10
2018-08-12T01:17:38.161Z,21.20
2018-08-12T01:20:11.271Z,21.40
2018-08-12T01:22:42.782Z,21.40
2018-08-12T01:25:14.480Z,21.20
2018-08-12T01:27:45.776Z,21.00
2018-08-12T01:30:19.411Z,21.00
2018-08-12T01:32:50.804Z,21.20
2018-08-12T01:35:22.185Z,21.30
2018-08-12T01:37:53.255Z,21.20
2018-08-12T01:40:24.543Z,21.10
2018-08-12T01:42:55.670Z,20.90
2018-08-12T01:45:26.857Z,20.70
2018-08-12T01:47:58.110Z,20.60
2018-08-12T01:50:29.412Z,20.50
2018-08-12T01:53:00.881Z,20.60
2018-08-12T01:55:32.178Z,20.50
2018-08-12T01:58:03.635Z,20.30
2018-08-12T02:00:34.961Z,20.20
2018-08-12T02:03:06.798Z,20.20
2018-08-12T02:05:38.791Z,20.30
2018-08-12T02:08:10.714Z,20.30
2018-08-12T02:10:42.381Z,20.20
2018-08-12T02:13:13.640Z,20.40
2018-08-12T02:15:44.816Z,20.60
2018-08-12T02:18:15.889Z,20.60
2018-08-12T02:20:47.273Z,20.70
2018-08-12T02:23:18.643Z,20.70
2018-08-12T02:25:50.052Z,20.60
2018-08-12T02:28:21.403Z,20.40
2018-08-12T02:30:52.818Z,20.40
2018-08-12T02:33:24.223Z,20.30
2018-08-12T02:35:55.758Z,20.20
2018-08-12T02:38:26.961Z,20.10
2018-08-12T02:40:58.204Z,20.00
2018-08-12T02:43:29.556Z,20.20
2018-08-12T02:46:00.964Z,20.20
2018-08-12T02:48:32.381Z,20.10
2018-08-12T02:51:03.853Z,19.90
2018-08-12T02:53:35.389Z,19.80
2018-08-12T02:56:06.588Z,19.80
2018-08-12T02:58:37.694Z,20.00
2018-08-12T03:01:09.052Z,20.10
2018-08-12T03:03:40.698Z,20.10
2018-08-12T03:06:12.102Z,20.10
2018-08-12T03:08:43.434Z,20.00
2018-08-12T03:11:14.795Z,19.80
2018-08-12T03:13:46.195Z,19.60
2018-08-12T03:16:17.650Z,19.60
2018-08-12T03:18:48.950Z,19.70
2018-08-12T03:21:20.653Z,19.60
2018-08-12T03:23:51.927Z,19.60
2018-08-12T03:26:23.580Z,19.50
2018-08-12T03:28:54.716Z,19.40
2018-08-12T03:31:26.159Z,19.30
2018-08-12T03:33:57.764Z,19.40
2018-08-12T03:36:29.412Z,19.50
2018-08-12T03:39:00.514Z,19.50
2018-08-12T03:41:31.662Z,19.60
2018-08-12T03:44:03.363Z,19.70
2018-08-12T03:46:34.511Z,19.70
2018-08-12T03:49:05.813Z,19.80
2018-08-12T03:51:37.064Z,19.70
2018-08-12T03:54:08.343Z,19.70
2018-08-12T03:56:39.767Z,19.80
2018-08-12T03:59:11.224Z,19.90
2018-08-12T04:01:42.561Z,19.80
2018-08-12T04:04:13.812Z,19.60
2018-08-12T04:06:45.187Z,19.60
2018-08-12T04:09:16.533Z,19.50
2018-08-12T04:11:47.852Z,19.50
2018-08-12T04:14:18.958Z,19.40
2018-08-12T04:17:04.541Z,19.40
2018-08-12T04:19:35.667Z,19.50
2018-08-12T04:22:07.193Z,19.60
2018-08-12T04:24:38.756Z,19.60
2018-08-12T04:27:10.178Z,19.60
2018-08-12T04:29:41.512Z,19.60
2018-08-12T04:32:12.786Z,19.50
2018-08-12T04:34:43.967Z,19.40
2018-08-12T04:37:15.308Z,19.30
2018-08-12T04:39:46.616Z,19.20
2018-08-12T04:42:17.779Z,19.10
2018-08-12T04:44:48.991Z,19.00
2018-08-12T04:47:20.320Z,19.20
2018-08-12T04:49:51.536Z,19.30
2018-08-12T04:52:22.762Z,19.40
2018-08-12T04:54:53.991Z,19.40
2018-08-12T04:57:25.595Z,19.40
2018-08-12T04:59:56.736Z,19.40
2018-08-12T05:02:28.137Z,19.40
2018-08-12T05:04:59.319Z,19.30
2018-08-12T05:07:30.475Z,19.40
2018-08-12T05:10:02.408Z,19.20
2018-08-12T05:12:33.799Z,19.00
2018-08-12T05:15:06.151Z,18.80
2018-08-12T05:17:37.537Z,18.80
2018-08-12T05:20:09.314Z,18.80
2018-08-12T05:22:40.990Z,18.90
2018-08-12T05:25:12.166Z,18.90
2018-08-12T05:27:43.411Z,18.90
2018-08-12T05:30:15.478Z,18.80
2018-08-12T05:32:46.501Z,18.80
2018-08-12T05:35:18.169Z,18.80
2018-08-12T05:37:49.337Z,18.90
2018-08-12T05:40:21.022Z,19.00
2018-08-12T05:42:52.512Z,19.20
2018-08-12T05:45:23.859Z,19.30
2018-08-12T05:47:55.251Z,19.30
2018-08-12T05:50:26.680Z,19.40
2018-08-12T05:52:57.852Z,19.50
2018-08-12T05:55:29.131Z,19.50
2018-08-12T05:58:00.408Z,19.50
2018-08-12T06:00:31.854Z,19.50
2018-08-12T06:03:03.316Z,19.60
2018-08-12T06:05:34.590Z,19.60
2018-08-12T06:08:05.964Z,19.90
2018-08-12T06:10:37.222Z,20.00
2018-08-12T06:13:08.786Z,20.10
2018-08-12T06:15:40.035Z,20.20
2018-08-12T06:18:11.181Z,20.20
2018-08-12T06:20:42.395Z,20.30
2018-08-12T06:23:13.704Z,20.40
2018-08-12T06:25:44.888Z,20.40
2018-08-12T06:28:15.949Z,20.60
2018-08-12T06:30:47.252Z,20.60
2018-08-12T06:33:19.641Z,20.60
2018-08-12T06:35:51.016Z,20.70
2018-08-12T06:38:22.457Z,20.80
2018-08-12T06:40:53.868Z,20.90
2018-08-12T06:43:25.282Z,21.10
2018-08-12T06:45:57.199Z,21.20
2018-08-12T06:48:28.583Z,21.40
2018-08-12T06:51:00.046Z,21.60
2018-08-12T06:53:31.326Z,21.60
2018-08-12T06:56:02.788Z,21.90
2018-08-12T06:58:34.083Z,22.10
2018-08-12T07:01:06.130Z,22.30
2018-08-12T07:03:37.740Z,22.40
2018-08-12T07:06:09.325Z,22.50
2018-08-12T07:08:40.705Z,22.60
2018-08-12T07:11:11.858Z,22.80
2018-08-12T07:13:43.049Z,23.10
2018-08-12T07:16:15.213Z,23.30
2018-08-12T07:18:46.405Z,23.50
2018-08-12T07:21:17.592Z,23.80
2018-08-12T07:23:49.249Z,23.70
2018-08-12T07:26:20.516Z,23.60
2018-08-12T07:28:52.236Z,24.00
2018-08-12T07:31:23.519Z,24.30
2018-08-12T07:33:55.182Z,24.30
2018-08-12T07:36:26.467Z,24.70
2018-08-12T07:38:57.978Z,25.00
2018-08-12T07:41:29.339Z,25.10
2018-08-12T07:44:00.668Z,25.40
2018-08-12T07:46:32.435Z,25.30
2018-08-12T07:49:04.097Z,25.70
2018-08-12T07:51:35.312Z,26.00
2018-08-12T07:54:06.428Z,26.10
2018-08-12T07:56:37.809Z,26.50
2018-08-12T07:59:09.204Z,26.80
2018-08-12T08:01:40.533Z,27.00
2018-08-12T08:04:12.942Z,27.20
2018-08-12T08:06:44.356Z,27.60
2018-08-12T08:09:15.994Z,27.60
2018-08-12T08:11:47.135Z,27.90
2018-08-12T08:14:19.681Z,28.10
2018-08-12T08:16:50.900Z,28.50
2018-08-12T08:19:22.608Z,28.40
2018-08-12T08:21:53.751Z,28.70
2018-08-12T08:24:25.114Z,29.00
2018-08-12T08:26:56.628Z,29.00
2018-08-12T08:29:28.075Z,28.80
2018-08-12T08:31:59.404Z,29.30
2018-08-12T08:39:21.423Z,29.90
2018-08-12T08:41:52.612Z,30.10
2018-08-12T08:44:23.916Z,30.20
2018-08-12T08:46:55.428Z,30.30
2018-08-12T08:49:27.007Z,30.40
2018-08-12T08:51:58.375Z,30.80
2018-08-12T08:54:29.820Z,30.90
2018-08-12T08:57:00.913Z,31.00
2018-08-12T08:59:32.423Z,31.20
2018-08-12T09:02:03.664Z,31.40
2018-08-12T09:04:35.079Z,31.40
2018-08-12T09:07:07.115Z,31.60
2018-08-12T09:09:38.427Z,31.70
2018-08-12T09:12:10.769Z,31.90
2018-08-12T09:14:42.197Z,32.00
2018-08-12T09:17:13.443Z,32.20
2018-08-12T09:19:44.863Z,32.10
2018-08-12T09:22:16.116Z,32.00
2018-08-12T09:24:47.157Z,32.00
2018-08-12T09:27:18.339Z,32.20
2018-08-12T09:29:49.790Z,32.50
2018-08-12T09:32:20.972Z,32.50
2018-08-12T09:34:52.121Z,32.80
2018-08-12T09:37:23.823Z,32.90
2018-08-12T09:39:55.844Z,32.80
2018-08-12T09:42:27.623Z,32.80
2018-08-12T09:44:59.151Z,33.00
2018-08-12T09:47:30.484Z,33.00
2018-08-12T09:50:02.121Z,32.90
2018-08-12T09:52:33.482Z,33.30
2018-08-12T09:55:05.430Z,33.50
2018-08-12T09:57:36.944Z,33.70
2018-08-12T10:00:19.923Z,33.90
2018-08-12T10:02:52.641Z,33.60
2018-08-12T10:05:24.208Z,34.00
2018-08-12T10:07:55.631Z,34.10
2018-08-12T10:10:26.783Z,34.20
2018-08-12T10:14:00.826Z,34.20
2018-08-12T10:16:32.855Z,34.40
2018-08-12T10:19:04.443Z,34.50
2018-08-12T10:21:36.280Z,34.60
2018-08-12T10:24:08.737Z,34.10
2018-08-12T10:26:39.961Z,34.20
2018-08-12T10:29:11.148Z,34.30
2018-08-12T10:31:42.362Z,34.40
2018-08-12T10:34:13.947Z,34.50
2018-08-12T10:36:45.505Z,34.60
2018-08-12T10:39:16.707Z,34.80
2018-08-12T10:41:47.892Z,35.00
2018-08-12T10:44:19.565Z,35.20
2018-08-12T10:46:50.642Z,35.40
2018-08-12T10:49:21.944Z,35.30
2018-08-12T10:51:53.384Z,35.10
2018-08-12T10:54:25.008Z,35.40
2018-08-12T10:56:56.446Z,35.60
2018-08-12T10:59:27.939Z,35.80
2018-08-12T11:01:59.507Z,35.90
2018-08-12T11:04:31.045Z,35.90
2018-08-12T11:07:02.435Z,35.90
2018-08-12T11:09:33.851Z,35.60
2018-08-12T11:12:05.584Z,35.70
2018-08-12T11:14:37.338Z,36.00
2018-08-12T11:17:08.927Z,36.30
2018-08-12T11:19:40.361Z,36.30
2018-08-12T11:22:12.175Z,36.50
2018-08-12T11:24:43.440Z,36.80
2018-08-12T11:27:14.619Z,36.90
2018-08-12T11:29:45.804Z,36.80
2018-08-12T11:32:16.975Z,36.90
2018-08-12T11:34:48.199Z,37.00
2018-08-12T11:37:19.434Z,37.00
2018-08-12T11:39:50.754Z,37.00
2018-08-12T11:42:22.743Z,36.60
2018-08-12T11:44:54.000Z,36.80
2018-08-12T11:47:25.176Z,36.80
2018-08-12T11:49:56.367Z,36.60
2018-08-12T11:52:28.366Z,37.00
2018-08-12T11:54:59.698Z,37.10
2018-08-12T11:57:31.000Z,37.30
2018-08-12T12:00:02.737Z,37.20
2018-08-12T12:02:34.182Z,37.10
2018-08-12T12:05:06.209Z,37.10
2018-08-12T12:07:38.664Z,37.30
2018-08-12T12:10:13.395Z,37.50
2018-08-12T12:12:46.170Z,37.50
2018-08-12T12:15:17.854Z,37.60
2018-08-12T12:17:49.583Z,37.60
2018-08-12T12:20:21.131Z,37.80
2018-08-12T12:22:52.540Z,37.90
2018-08-12T12:25:23.631Z,37.90
2018-08-12T12:27:55.528Z,38.20
2018-08-12T12:30:27.067Z,38.30
2018-08-12T12:32:58.263Z,38.40
2018-08-12T12:35:29.879Z,38.20
2018-08-12T12:38:01.217Z,38.40
2018-08-12T12:40:32.373Z,38.60
2018-08-12T12:43:03.929Z,38.60
2018-08-12T12:45:35.370Z,38.80
2018-08-12T12:48:07.547Z,38.80
2018-08-12T12:50:38.927Z,38.30
2018-08-12T12:53:10.292Z,38.70
2018-08-12T12:55:41.487Z,38.90
2018-08-12T12:58:12.736Z,38.70
2018-08-12T13:00:43.820Z,38.80
2018-08-12T13:03:15.063Z,39.10
2018-08-12T13:05:46.657Z,38.90
2018-08-12T13:08:18.015Z,39.10
2018-08-12T13:10:49.479Z,39.10
2018-08-12T13:13:21.040Z,39.30
2018-08-12T13:15:52.166Z,38.80
2018-08-12T13:18:23.634Z,38.40
2018-08-12T13:20:54.792Z,38.80
2018-08-12T13:23:25.964Z,38.80
2018-08-12T13:25:57.344Z,39.10
2018-08-12T13:28:28.589Z,39.30
2018-08-12T13:30:59.996Z,39.00
2018-08-12T13:33:31.437Z,39.00
2018-08-12T13:36:02.581Z,39.10
2018-08-12T13:38:33.714Z,38.40
2018-08-12T13:41:05.331Z,38.90
2018-08-12T13:43:36.589Z,39.20
2018-08-12T13:46:08.449Z,39.50
2018-08-12T13:48:39.819Z,39.60
2018-08-12T13:51:11.466Z,39.70
2018-08-12T13:53:42.635Z,39.40
2018-08-12T13:56:13.855Z,39.60
2018-08-12T13:58:45.405Z,39.30
2018-08-12T14:01:16.591Z,39.70
2018-08-12T14:03:47.723Z,39.90
2018-08-12T14:06:19.189Z,39.80
2018-08-12T14:08:50.339Z,39.40
2018-08-12T14:11:21.787Z,38.80
2018-08-12T14:13:52.992Z,38.50
2018-08-12T14:16:24.124Z,38.40
2018-08-12T14:18:55.361Z,38.50
2018-08-12T14:21:26.803Z,38.80
2018-08-12T14:23:57.952Z,38.50
2018-08-12T14:26:29.251Z,38.40
2018-08-12T14:29:00.717Z,38.30
2018-08-12T14:31:31.874Z,38.40
2018-08-12T14:34:03.068Z,38.30
2018-08-12T14:36:34.495Z,38.20
2018-08-12T14:39:08.991Z,38.30
2018-08-12T14:41:40.622Z,37.70
2018-08-12T14:44:12.177Z,37.40
2018-08-12T14:46:43.776Z,37.00
2018-08-12T14:49:14.922Z,37.00
2018-08-12T14:51:46.566Z,37.00
2018-08-12T14:54:17.707Z,36.80
2018-08-12T14:56:49.056Z,36.80
2018-08-12T14:59:20.423Z,36.90
2018-08-12T15:01:51.665Z,36.80
2018-08-12T15:04:22.864Z,36.70
2018-08-12T15:06:54.147Z,36.50
2018-08-12T15:09:25.278Z,36.20
2018-08-12T15:11:56.552Z,36.10
2018-08-12T15:14:27.603Z,36.10
2018-08-12T15:16:58.982Z,35.80
2018-08-12T15:19:31.811Z,35.70
2018-08-12T15:22:03.722Z,35.70
2018-08-12T15:24:35.035Z,35.60
2018-08-12T15:27:06.611Z,35.60
2018-08-12T15:29:37.758Z,35.50
2018-08-12T15:32:08.918Z,35.50
2018-08-12T15:34:40.536Z,35.50
2018-08-12T15:37:11.780Z,35.40
2018-08-12T15:39:43.025Z,35.30
2018-08-12T15:42:14.691Z,35.30
2018-08-12T15:44:46.315Z,35.20
2018-08-12T15:47:17.703Z,35.20
2018-08-12T15:49:48.998Z,35.20
2018-08-12T15:52:20.311Z,34.90
2018-08-12T15:54:51.392Z,34.90
2018-08-12T15:57:22.645Z,34.90
2018-08-12T15:59:53.927Z,34.80
2018-08-12T16:02:25.167Z,34.80
2018-08-12T16:04:56.419Z,34.70
2018-08-12T16:07:27.969Z,34.50
2018-08-12T16:09:59.725Z,34.50
2018-08-12T16:12:31.085Z,34.50
2018-08-12T16:15:02.501Z,34.50
2018-08-12T16:17:34.245Z,34.40
2018-08-12T16:20:06.866Z,34.40
2018-08-12T16:22:38.241Z,34.40
2018-08-12T16:25:16.846Z,34.40
2018-08-12T16:27:48.800Z,34.30
2018-08-12T16:30:20.881Z,34.30
2018-08-12T16:32:52.512Z,34.30
2018-08-12T16:35:23.721Z,34.40
2018-08-12T16:37:54.827Z,34.30
2018-08-12T16:40:26.009Z,34.40
2018-08-12T16:42:57.455Z,34.20
2018-08-12T16:45:29.051Z,34.10
2018-08-12T16:48:00.834Z,34.00
2018-08-12T16:50:32.193Z,33.90
2018-08-12T16:53:03.428Z,33.80
2018-08-12T16:55:34.809Z,33.60
2018-08-12T16:58:06.417Z,33.40
2018-08-12T17:00:37.932Z,33.10
2018-08-12T17:03:09.810Z,33.00
2018-08-12T17:05:41.109Z,32.90
2018-08-12T17:08:12.319Z,32.70
2018-08-12T17:10:43.452Z,32.60
2018-08-12T17:13:14.932Z,32.50
2018-08-12T17:15:46.479Z,32.40
2018-08-12T17:18:17.954Z,32.30
2018-08-12T17:20:49.276Z,32.10
2018-08-12T17:23:20.543Z,32.00
2018-08-12T17:25:54.126Z,31.90
2018-08-12T17:28:25.632Z,31.80
2018-08-12T17:30:57.088Z,31.80
2018-08-12T17:33:29.270Z,31.60
2018-08-12T17:36:00.708Z,31.60
2018-08-12T17:38:33.207Z,31.50
2018-08-12T17:41:06.951Z,31.40
2018-08-12T17:43:40.227Z,31.40
2018-08-12T17:46:13.705Z,31.20
2018-08-12T17:48:45.548Z,31.10
2018-08-12T17:51:16.688Z,30.80
2018-08-12T17:53:49.949Z,30.70
2018-08-12T17:56:23.174Z,30.40
2018-08-12T17:58:54.566Z,29.20
2018-08-12T18:01:25.806Z,27.90
2018-08-12T18:03:57.587Z,27.30
2018-08-12T18:06:29.944Z,26.00
2018-08-12T18:09:01.587Z,24.80
2018-08-12T18:11:32.799Z,24.10
2018-08-12T18:14:04.152Z,23.20
2018-08-12T18:16:35.916Z,22.50
2018-08-12T18:19:08.253Z,21.70
2018-08-12T18:21:39.495Z,21.20
2018-08-12T18:24:10.642Z,20.80
2018-08-12T18:26:42.036Z,20.70
2018-08-12T18:29:13.550Z,20.40
2018-08-12T18:31:44.864Z,20.30
2018-08-12T18:34:16.006Z,20.20
2018-08-12T18:36:50.087Z,20.20
2018-08-12T18:39:23.177Z,20.00
2018-08-12T18:41:54.353Z,20.00
2018-08-12T18:44:26.117Z,20.00
2018-08-12T18:46:57.260Z,20.00
2018-08-12T18:49:29.266Z,20.00
2018-08-12T18:52:00.601Z,20.10
2018-08-12T18:54:31.922Z,20.20
2018-08-12T18:57:03.214Z,20.30
2018-08-12T18:59:36.552Z,20.00
2018-08-12T19:02:09.832Z,19.90
2018-08-12T19:04:41.179Z,19.90
2018-08-12T19:07:13.208Z,19.80
2018-08-12T19:09:44.484Z,19.80
2018-08-12T19:12:15.843Z,19.80
2018-08-12T19:14:47.029Z,19.80
2018-08-12T19:17:19.072Z,19.80
2018-08-12T19:19:51.100Z,19.80
2018-08-12T19:22:22.245Z,19.90
2018-08-12T19:24:54.307Z,19.90
2018-08-12T19:27:25.612Z,19.90
2018-08-12T19:29:56.927Z,19.90
2018-08-12T19:32:28.415Z,19.90
2018-08-12T19:34:59.601Z,20.00
2018-08-12T19:37:33.021Z,20.00
2018-08-12T19:40:04.628Z,19.90
2018-08-12T19:42:35.346Z,19.90
2018-08-12T19:45:07.641Z,19.80
2018-08-12T19:47:38.346Z,19.70
2018-08-12T19:50:10.619Z,19.70
2018-08-12T19:52:41.351Z,19.70
2018-08-12T19:55:13.514Z,19.60
2018-08-12T19:57:44.813Z,19.60
2018-08-12T20:00:16.505Z,19.60
2018-08-12T20:02:47.766Z,19.60
2018-08-12T20:05:18.498Z,19.50
2018-08-12T20:07:49.265Z,19.50
2018-08-12T20:10:19.942Z,19.60
2018-08-12T20:12:50.626Z,19.50
2018-08-12T20:15:21.343Z,19.50
2018-08-12T20:17:52.060Z,19.60
2018-08-12T20:20:22.927Z,19.60
2018-08-12T20:22:53.665Z,19.60
2018-08-12T20:25:24.340Z,19.40
2018-08-12T20:27:55.166Z,19.40
2018-08-12T20:30:25.841Z,19.70
2018-08-12T20:32:56.583Z,20.00
2018-08-12T20:35:27.270Z,20.10
2018-08-12T20:37:57.967Z,20.00
2018-08-12T20:40:28.686Z,19.70
2018-08-12T20:42:59.386Z,19.90
2018-08-12T20:45:30.263Z,19.90
2018-08-12T20:48:00.923Z,20.00
2018-08-12T20:50:33.219Z,19.90
2018-08-12T20:53:04.046Z,19.80
2018-08-12T20:55:34.796Z,19.60
2018-08-12T20:58:06.107Z,19.60
2018-08-12T21:00:36.838Z,19.70
2018-08-12T21:03:07.557Z,19.60
2018-08-12T21:05:38.228Z,19.50
2018-08-12T21:08:08.972Z,19.50
2018-08-12T21:10:39.727Z,19.50
2018-08-12T21:13:10.594Z,19.70
2018-08-12T21:15:41.313Z,19.50
2018-08-12T21:18:12.105Z,19.40
2018-08-12T21:20:42.912Z,19.50
2018-08-12T21:23:13.621Z,19.60
2018-08-12T21:25:44.872Z,19.70
2018-08-12T21:28:16.122Z,19.90
2018-08-12T21:30:47.721Z,19.70
2018-08-12T21:33:19.016Z,19.70
2018-08-12T21:35:50.258Z,19.60
2018-08-12T21:38:21.616Z,19.60
2018-08-12T21:40:52.875Z,19.60
2018-08-12T21:43:24.056Z,19.70
2018-08-12T21:45:55.251Z,19.70
2018-08-12T21:48:26.833Z,19.70
2018-08-12T21:50:58.117Z,19.70
2018-08-12T21:53:29.804Z,19.70
2018-08-12T21:56:00.923Z,19.50
2018-08-12T21:58:32.160Z,19.60
2018-08-12T22:01:03.908Z,19.60
2018-08-12T22:03:35.455Z,19.60
2018-08-12T22:06:07.128Z,19.50
2018-08-12T22:08:38.383Z,19.60
2018-08-12T22:11:09.738Z,19.70
2018-08-12T22:13:41.120Z,19.80
2018-08-12T22:16:12.898Z,19.80
2018-08-12T22:18:44.315Z,19.80
2018-08-12T22:21:15.523Z,19.80
2018-08-12T22:23:47.236Z,19.70
2018-08-12T22:27:21.108Z,19.70
2018-08-12T22:29:52.443Z,19.60
2018-08-12T22:32:23.996Z,19.70
2018-08-12T22:34:55.167Z,19.80
2018-08-12T22:37:25.826Z,19.70
2018-08-12T22:39:57.263Z,19.70
2018-08-12T22:42:28.479Z,19.60
2018-08-12T22:44:59.882Z,19.60
2018-08-12T22:47:30.980Z,19.60
2018-08-12T22:50:02.220Z,19.70
2018-08-12T22:52:32.987Z,19.70
2018-08-12T22:55:03.745Z,19.80
2018-08-12T22:57:35.256Z,19.90
2018-08-12T23:00:09.774Z,20.00
2018-08-12T23:02:40.738Z,20.00
2018-08-12T23:05:11.632Z,19.80
2018-08-12T23:07:42.799Z,19.90
2018-08-12T23:10:13.566Z,19.90
2018-08-12T23:12:44.234Z,19.80
2018-08-12T23:15:31.408Z,19.80
2018-08-12T23:18:02.092Z,19.80
2018-08-12T23:20:32.839Z,19.80
2018-08-12T23:23:04.637Z,19.90
2018-08-12T23:25:36.202Z,19.80
2018-08-12T23:28:07.458Z,19.80
2018-08-12T23:30:39.026Z,19.80
2018-08-12T23:33:10.319Z,19.80
2018-08-12T23:35:41.527Z,19.80
2018-08-12T23:38:13.985Z,19.80
2018-08-12T23:40:45.102Z,19.70
2018-08-12T23:43:16.276Z,19.80
2018-08-12T23:45:47.848Z,19.80
2018-08-12T23:48:19.255Z,19.80
2018-08-12T23:50:49.964Z,19.70
2018-08-12T23:53:20.860Z,19.70
2018-08-12T23:55:51.681Z,19.70
2018-08-12T23:58:22.343Z,19.70
